Nantucket, Massachusetts
Current Conditions -  °F | °C
As of 12:53 AM on Saturday 25 Oct 2014 (Local Time) from KACK Reporting Station
Overcast Overcast  
Wind Chill: 51°   Ceiling: 2300
Heat Index: 51°   Visibility: 10mi
Dew Point: 44°   Wind: 10mph
Humidity: 77%   Direction: 300°WNW
Pressure: 29.74"   Gusts: NA
Location:  41.28°N, 70.1°W
Report Text: KACK 250453Z AUTO 30009KT 10SM OVC023 11/07 A2974 RMK AO2 SLP069 T01060067 401390106
Loading
Personal Weather Stations






























Interactive Weather Map
Tropical Storm Tracking
New forecast layout! Learn more

10-Day Weather Forecast

Advertisements
Track Severe Weather on mobile